Time;durP1;ratioP1;P1;durP2;ratioP2;P2;SDS_P1;SDS_P2;PMS_P1;PMS_P2;Temp;Humidity;BMP_temperature;BMP_pressure;BME280_temperature;BME280_humidity;BME280_pressure;Samples;Min_cycle;Max_cycle;Signal;HPM_P1;HPM_P2
2023/04/22 00:01:48;;;;;;;;;2.00;1.00;;;;;21.14;45.19;101000.24;111707;1250;18837;-38
2023/04/22 00:04:15;;;;;;;;;1.00;1.00;;;;;21.12;45.44;100994.80;111965;1266;20699;-38
2023/04/22 00:06:44;;;;;;;;;1.00;1.00;;;;;21.12;45.42;100993.20;111717;1251;22709;-38
2023/04/22 00:09:11;;;;;;;;;1.00;1.00;;;;;21.13;45.29;100987.27;111939;1266;19573;-38
2023/04/22 00:11:39;;;;;;;;;1.00;1.00;;;;;21.12;45.54;100987.92;111618;1266;19377;-37
2023/04/22 00:14:06;;;;;;;;;2.00;1.00;;;;;21.12;45.60;100984.24;111873;1266;21385;-37
2023/04/22 00:16:34;;;;;;;;;2.00;2.00;;;;;21.11;45.51;100978.40;111685;1266;18718;-37
2023/04/22 00:19:01;;;;;;;;;1.00;1.00;;;;;21.12;45.52;100976.98;111892;1266;19675;-37
2023/04/22 00:21:29;;;;;;;;;2.00;1.00;;;;;21.12;45.60;100976.23;111650;1266;21621;-37
2023/04/22 00:23:56;;;;;;;;;2.00;2.00;;;;;21.12;45.50;100975.14;111928;1266;19588;-37
2023/04/22 00:26:24;;;;;;;;;1.00;1.00;;;;;21.12;45.44;100973.50;111642;1266;21845;-37
2023/04/22 00:28:51;;;;;;;;;1.00;1.00;;;;;21.12;45.46;100972.41;111942;1251;20155;-37
2023/04/22 00:31:18;;;;;;;;;1.00;1.00;;;;;21.12;45.60;100971.91;111666;1251;19616;-37
2023/04/22 00:33:46;;;;;;;;;1.00;1.00;;;;;21.11;45.57;100968.88;111952;1266;20737;-37
2023/04/22 00:36:13;;;;;;;;;1.50;1.00;;;;;21.12;45.61;100968.81;111698;1251;21591;-37
2023/04/22 00:38:41;;;;;;;;;1.00;1.00;;;;;21.12;45.35;100965.02;112039;1250;18846;-37
2023/04/22 00:41:08;;;;;;;;;1.00;1.00;;;;;21.11;45.45;100965.98;111712;1266;19259;-38
2023/04/22 00:43:35;;;;;;;;;1.00;1.00;;;;;21.11;45.49;100962.70;111904;1266;21457;-37
2023/04/22 00:46:03;;;;;;;;;1.00;1.00;;;;;21.11;45.45;100960.38;111730;1251;19726;-37
2023/04/22 00:48:30;;;;;;;;;1.00;1.00;;;;;21.10;45.57;100961.17;111880;1259;20692;-37
2023/04/22 00:50:58;;;;;;;;;2.00;2.00;;;;;21.11;45.56;100960.21;111749;1266;20148;-37
2023/04/22 00:53:25;;;;;;;;;1.00;1.00;;;;;21.12;45.66;100958.14;111638;1266;18649;-38
2023/04/22 00:55:53;;;;;;;;;1.00;1.00;;;;;21.11;45.63;100955.48;111754;1266;20627;-38
2023/04/22 00:58:20;;;;;;;;;1.00;1.00;;;;;21.11;45.48;100955.08;111467;1250;20171;-37
2023/04/22 01:00:47;;;;;;;;;1.00;1.00;;;;;21.13;45.55;100955.48;111781;1251;19611;-38
2023/04/22 01:03:15;;;;;;;;;2.00;1.00;;;;;21.12;45.52;100956.06;111464;1266;19356;-37
2023/04/22 01:05:43;;;;;;;;;1.00;1.00;;;;;21.13;45.55;100954.56;111774;1251;21791;-38
2023/04/22 01:08:10;;;;;;;;;2.50;2.50;;;;;21.13;45.55;100953.13;111456;1251;19638;-38
2023/04/22 01:10:37;;;;;;;;;1.00;1.00;;;;;21.12;45.60;100952.48;111786;1266;19333;-37
2023/04/22 01:13:05;;;;;;;;;1.00;1.00;;;;;21.11;45.68;100951.27;111461;1267;20171;-37
2023/04/22 01:15:32;;;;;;;;;1.00;1.00;;;;;21.11;45.65;100951.08;111793;1266;19518;-38
2023/04/22 01:18:00;;;;;;;;;1.00;1.00;;;;;21.11;45.60;100949.83;111502;1266;19357;-38
2023/04/22 01:20:28;;;;;;;;;1.00;1.00;;;;;21.11;45.62;100953.64;111727;1266;20142;-37
2023/04/22 01:22:56;;;;;;;;;1.00;1.00;;;;;21.11;45.78;100952.08;111972;1266;18819;-39
2023/04/22 01:25:23;;;;;;;;;1.00;1.00;;;;;21.11;45.63;100950.91;111718;1266;19339;-37
2023/04/22 01:27:51;;;;;;;;;1.00;1.00;;;;;21.11;45.57;100951.46;112005;1266;21196;-37
2023/04/22 01:30:18;;;;;;;;;1.00;1.00;;;;;21.11;45.78;100950.00;111731;1250;18718;-37
2023/04/22 01:32:45;;;;;;;;;1.00;1.00;;;;;21.11;45.61;100949.28;112001;1266;19345;-37
2023/04/22 01:35:13;;;;;;;;;1.00;1.00;;;;;21.10;45.75;100948.99;111696;1250;20295;-37
2023/04/22 01:37:40;;;;;;;;;1.00;1.00;;;;;21.12;45.74;100950.52;111770;1266;18768;-37
2023/04/22 01:40:08;;;;;;;;;1.00;1.00;;;;;21.11;45.72;100951.97;111731;1266;19405;-38
2023/04/22 01:42:35;;;;;;;;;1.00;1.00;;;;;21.12;45.69;100952.14;111702;1250;21678;-38
2023/04/22 01:45:03;;;;;;;;;1.00;1.00;;;;;21.11;45.55;100946.73;111739;1266;18714;-37
2023/04/22 01:47:30;;;;;;;;;1.00;1.00;;;;;21.11;45.70;100943.28;111513;1266;21061;-37
2023/04/22 01:49:57;;;;;;;;;1.00;1.00;;;;;21.11;45.76;100943.69;111771;1250;21550;-38
2023/04/22 01:52:25;;;;;;;;;2.00;2.00;;;;;21.11;45.66;100941.85;111453;1251;19645;-37
2023/04/22 01:54:52;;;;;;;;;1.00;1.00;;;;;21.11;45.65;100940.08;111774;1266;19231;-38
2023/04/22 01:57:20;;;;;;;;;4.00;2.00;;;;;21.11;45.66;100945.09;111494;1251;21482;-37
2023/04/22 01:59:47;;;;;;;;;1.50;1.50;;;;;21.10;45.75;100942.64;111933;1266;18838;-38
2023/04/22 02:02:15;;;;;;;;;1.00;1.00;;;;;21.09;45.80;100943.48;111564;1266;19587;-37
2023/04/22 02:04:42;;;;;;;;;2.00;2.00;;;;;21.11;45.67;100947.16;111808;1266;21443;-37
2023/04/22 02:07:09;;;;;;;;;2.00;2.00;;;;;21.11;45.61;100948.77;111521;1266;18709;-38
2023/04/22 02:09:37;;;;;;;;;1.00;1.00;;;;;21.11;45.74;100943.69;111804;1250;20747;-37
2023/04/22 02:12:04;;;;;;;;;1.50;1.50;;;;;21.11;45.65;100944.91;111535;1266;21510;-37
2023/04/22 02:14:32;;;;;;;;;1.00;1.00;;;;;21.11;45.59;100945.09;111805;1266;18790;-37
2023/04/22 02:17:01;;;;;;;;;2.00;2.00;;;;;21.11;45.64;100949.70;111578;1266;19336;-37
2023/04/22 02:19:28;;;;;;;;;1.50;1.50;;;;;21.10;45.69;100945.80;111739;1266;20136;-38
2023/04/22 02:21:55;;;;;;;;;2.00;2.00;;;;;21.10;45.81;100942.84;111903;1266;19588;-38
2023/04/22 02:24:23;;;;;;;;;1.67;1.67;;;;;21.11;45.71;100941.86;111719;1266;19335;-38
2023/04/22 02:26:50;;;;;;;;;1.67;1.67;;;;;21.11;45.60;100941.67;111697;1266;20184;-38
2023/04/22 02:29:18;;;;;;;;;2.00;2.00;;;;;21.11;45.84;100940.01;111752;1266;18658;-38
2023/04/22 02:31:45;;;;;;;;;2.00;2.00;;;;;21.12;45.70;100940.86;111438;1266;20780;-37
2023/04/22 02:34:12;;;;;;;;;2.00;2.00;;;;;21.10;45.76;100941.20;111735;1266;21479;-39
2023/04/22 02:36:40;;;;;;;;;4.00;2.00;;;;;21.11;45.74;100939.67;111481;1266;18704;-37
2023/04/22 02:39:07;;;;;;;;;2.00;2.00;;;;;21.10;45.76;100936.16;111762;1266;20699;-38
2023/04/22 02:41:35;;;;;;;;;1.00;1.00;;;;;21.10;45.77;100933.77;111501;1251;21566;-38
2023/04/22 02:44:02;;;;;;;;;1.00;1.00;;;;;21.12;45.83;100936.27;111810;1251;19595;-38
2023/04/22 02:46:30;;;;;;;;;1.00;1.00;;;;;21.11;45.75;100937.16;111487;1266;20714;-38
2023/04/22 02:48:57;;;;;;;;;2.00;1.00;;;;;21.10;45.71;100934.52;111774;1266;20354;-39
2023/04/22 02:51:25;;;;;;;;;1.00;1.00;;;;;21.10;45.78;100933.95;111497;1266;18747;-38
2023/04/22 02:53:52;;;;;;;;;1.00;1.00;;;;;21.11;45.66;100938.00;111756;1266;19351;-38
2023/04/22 02:56:20;;;;;;;;;1.00;1.00;;;;;21.11;45.80;100938.79;111473;1250;21653;-38
2023/04/22 02:58:47;;;;;;;;;1.50;1.50;;;;;21.11;45.60;100938.02;111756;1251;19644;-37
2023/04/22 03:01:15;;;;;;;;;1.00;1.00;;;;;21.11;45.53;100938.41;111520;1251;20823;-37
2023/04/22 03:03:42;;;;;;;;;1.67;1.67;;;;;21.10;45.72;100938.34;111774;1266;21519;-37
2023/04/22 03:06:10;;;;;;;;;2.00;2.00;;;;;21.09;45.65;100937.63;111514;1266;20671;-37
2023/04/22 03:08:37;;;;;;;;;2.50;2.50;;;;;21.11;45.66;100938.16;111778;1250;20631;-37
2023/04/22 03:11:04;;;;;;;;;1.00;1.00;;;;;21.12;45.73;100935.41;111516;1251;21599;-40
2023/04/22 03:13:32;;;;;;;;;2.00;2.00;;;;;21.11;45.64;100940.42;111867;1251;19871;-38
2023/04/22 03:15:59;;;;;;;;;1.00;1.00;;;;;21.09;45.61;100938.79;111537;1266;19535;-38
2023/04/22 03:18:27;;;;;;;;;2.00;2.00;;;;;21.10;45.57;100946.48;111826;1266;21503;-38
2023/04/22 03:20:54;;;;;;;;;1.00;1.00;;;;;21.10;45.73;100944.13;111551;1254;19672;-38
2023/04/22 03:23:22;;;;;;;;;1.00;1.00;;;;;21.11;45.66;100946.08;111870;1266;20737;-38
2023/04/22 03:25:49;;;;;;;;;2.00;1.00;;;;;21.10;45.80;100944.88;111602;1250;21594;-38
2023/04/22 03:28:17;;;;;;;;;1.50;1.50;;;;;21.09;45.56;100946.59;111863;1250;19731;-38
2023/04/22 03:30:44;;;;;;;;;2.00;2.00;;;;;21.11;45.53;100943.15;111566;1251;20767;-38
2023/04/22 03:33:12;;;;;;;;;1.00;1.00;;;;;21.10;45.82;100941.98;111830;1251;21419;-38
2023/04/22 03:35:39;;;;;;;;;1.00;1.00;;;;;21.10;45.73;100938.51;111589;1250;18646;-38
2023/04/22 03:38:07;;;;;;;;;1.00;1.00;;;;;21.11;45.69;100939.67;111932;1250;20825;-38
2023/04/22 03:40:34;;;;;;;;;1.00;1.00;;;;;21.12;45.78;100937.27;111546;1259;21461;-38
2023/04/22 03:43:02;;;;;;;;;1.00;1.00;;;;;21.12;45.58;100934.46;111829;1251;19618;-38
2023/04/22 03:45:30;;;;;;;;;1.00;1.00;;;;;21.11;45.57;100932.95;111501;1251;20780;-38
2023/04/22 03:47:57;;;;;;;;;2.50;2.50;;;;;21.10;45.58;100937.39;111764;1266;21777;-38
2023/04/22 03:50:24;;;;;;;;;1.00;1.00;;;;;21.09;45.84;100937.66;111537;1251;19664;-38
2023/04/22 03:52:52;;;;;;;;;1.00;1.00;;;;;21.11;45.77;100940.79;111814;1266;20758;-38
2023/04/22 03:55:19;;;;;;;;;1.00;1.00;;;;;21.11;45.58;100939.09;111524;1266;20347;-38
2023/04/22 03:57:47;;;;;;;;;1.00;1.00;;;;;21.12;45.72;100940.41;111833;1266;19587;-38
2023/04/22 04:00:14;;;;;;;;;2.00;2.00;;;;;21.13;45.77;100938.34;111562;1259;20861;-38
2023/04/22 04:02:42;;;;;;;;;1.00;1.00;;;;;21.12;45.70;100940.09;111840;1251;22920;-37
2023/04/22 04:05:10;;;;;;;;;1.00;1.00;;;;;21.11;45.69;100937.83;111589;1250;19537;-38
2023/04/22 04:07:37;;;;;;;;;1.67;1.67;;;;;21.13;45.66;100935.70;111822;1266;19361;-38
2023/04/22 04:10:04;;;;;;;;;2.00;2.00;;;;;21.11;45.60;100934.73;111553;1251;21537;-38
2023/04/22 04:12:32;;;;;;;;;1.00;1.00;;;;;21.11;45.65;100937.11;111815;1266;19586;-38
2023/04/22 04:14:59;;;;;;;;;2.00;2.00;;;;;21.11;45.76;100935.23;111564;1250;20761;-38
2023/04/22 04:17:27;;;;;;;;;1.00;1.00;;;;;21.13;45.80;100938.03;111841;1251;21563;-38
2023/04/22 04:19:55;;;;;;;;;2.00;2.00;;;;;21.12;45.60;100932.08;111479;1266;20682;-38
2023/04/22 04:22:23;;;;;;;;;1.00;1.00;;;;;21.12;45.65;100934.45;111862;1266;20772;-37
2023/04/22 04:24:51;;;;;;;;;1.00;1.00;;;;;21.13;45.68;100934.22;111919;1250;22047;-39
2023/04/22 04:27:18;;;;;;;;;2.00;2.00;;;;;21.13;45.75;100927.13;111808;1266;20910;-37
2023/04/22 04:29:46;;;;;;;;;1.00;1.00;;;;;21.12;45.74;100930.71;112034;1266;21365;-39
2023/04/22 04:32:13;;;;;;;;;2.00;2.00;;;;;21.13;45.76;100937.33;111815;1266;21472;-38
2023/04/22 04:34:41;;;;;;;;;2.00;2.00;;;;;21.12;45.66;100932.86;111974;1266;19575;-38
2023/04/22 04:37:09;;;;;;;;;1.00;1.00;;;;;21.13;45.66;100933.10;111671;1266;21088;-38
2023/04/22 04:39:36;;;;;;;;;2.00;2.00;;;;;21.13;45.80;100937.39;111959;1266;21537;-38
2023/04/22 04:42:03;;;;;;;;;2.00;2.00;;;;;21.12;45.67;100935.35;111647;1266;19074;-38
2023/04/22 04:44:31;;;;;;;;;2.00;2.00;;;;;21.13;45.76;100934.36;112002;1250;19426;-38
2023/04/22 04:46:59;;;;;;;;;2.00;1.00;;;;;21.13;45.74;100932.65;111674;1266;21521;-37
2023/04/22 04:49:29;;;;;;;;;1.00;1.00;;;;;21.13;45.57;100929.70;111957;1250;18758;-36
2023/04/22 04:51:56;;;;;;;;;2.00;2.00;;;;;21.13;45.62;100933.20;111919;1266;19309;-37
2023/04/22 04:54:24;;;;;;;;;;;;;;;21.12;45.58;100931.40;111651;1250;21465;-38
2023/04/22 04:56:51;;;;;;;;;4.00;4.00;;;;;21.11;45.70;100935.32;111964;1266;19539;-39
2023/04/22 04:59:19;;;;;;;;;14.00;13.00;;;;;21.06;45.04;100933.61;111704;1251;20793;-40
2023/04/22 05:01:46;;;;;;;;;22.00;17.00;;;;;20.95;43.29;100935.61;111957;1251;21603;-42
2023/04/22 05:04:13;;;;;;;;;19.00;17.00;;;;;20.87;41.93;100935.30;111693;1266;19752;-39
2023/04/22 05:06:41;;;;;;;;;16.00;15.00;;;;;20.80;41.49;100931.15;111995;1266;20847;-39
2023/04/22 05:09:08;;;;;;;;;18.00;17.00;;;;;20.74;40.98;100931.23;111674;1266;22740;-39
2023/04/22 05:11:36;;;;;;;;;17.00;16.00;;;;;20.71;40.82;100930.55;112037;1266;18680;-39
2023/04/22 05:14:03;;;;;;;;;19.00;18.00;;;;;20.71;40.40;100932.19;111722;1266;19706;-39
2023/04/22 05:16:31;;;;;;;;;18.00;16.00;;;;;20.69;40.10;100931.71;111986;1259;20289;-39
2023/04/22 05:18:58;;;;;;;;;18.50;18.00;;;;;20.69;39.86;100933.85;111689;1266;20033;-39
2023/04/22 05:21:25;;;;;;;;;17.00;17.00;;;;;20.70;39.50;100931.78;111872;1266;20764;-38
2023/04/22 05:23:53;;;;;;;;;21.00;19.00;;;;;20.72;39.27;100932.76;111717;1251;22831;-39
2023/04/22 05:26:20;;;;;;;;;18.00;17.00;;;;;20.69;38.86;100936.54;111670;1266;18780;-38
2023/04/22 05:28:48;;;;;;;;;13.00;13.00;;;;;20.67;38.78;100934.39;111677;1266;20846;-40
2023/04/22 05:31:15;;;;;;;;;15.00;15.00;;;;;20.70;38.49;100937.98;111594;1266;20494;-37
2023/04/22 05:33:43;;;;;;;;;15.00;15.00;;;;;20.75;38.67;100934.63;111747;1251;21243;-37
2023/04/22 05:36:10;;;;;;;;;10.00;10.00;;;;;20.90;39.07;100933.30;111464;1250;19359;-38
2023/04/22 05:38:37;;;;;;;;;15.00;12.50;;;;;21.00;39.16;100933.77;111750;1251;21601;-38
2023/04/22 05:41:05;;;;;;;;;12.00;12.00;;;;;21.08;39.55;100931.77;111511;1251;20014;-38
2023/04/22 05:43:32;;;;;;;;;11.00;8.50;;;;;21.13;39.85;100931.08;111783;1251;22260;-38
2023/04/22 05:46:00;;;;;;;;;10.00;8.00;;;;;21.19;40.20;100929.87;111489;1251;21558;-37
2023/04/22 05:48:27;;;;;;;;;8.00;7.00;;;;;21.24;40.66;100927.02;111812;1265;20064;-37
2023/04/22 05:50:55;;;;;;;;;7.00;7.00;;;;;21.30;40.97;100924.73;111523;1266;21108;-37
2023/04/22 05:53:22;;;;;;;;;10.00;10.00;;;;;21.33;41.60;100923.65;111835;1259;21562;-37
2023/04/22 05:55:49;;;;;;;;;8.00;7.00;;;;;21.38;41.82;100925.55;111522;1266;18703;-37
2023/04/22 05:58:17;;;;;;;;;8.00;8.00;;;;;21.40;42.20;100922.91;111896;1266;19380;-38
2023/04/22 06:00:45;;;;;;;;;8.00;8.00;;;;;21.43;42.44;100926.52;111555;1266;21721;-38
2023/04/22 06:03:12;;;;;;;;;5.00;5.00;;;;;21.48;42.87;100923.29;111816;1251;20072;-38
2023/04/22 06:05:39;;;;;;;;;7.00;7.00;;;;;21.52;43.38;100919.52;111532;1251;20791;-38
2023/04/22 06:08:07;;;;;;;;;7.00;7.00;;;;;21.55;43.54;100918.16;111833;1266;21542;-38
2023/04/22 06:10:34;;;;;;;;;5.00;4.33;;;;;21.58;43.72;100918.57;111555;1266;18708;-38
2023/04/22 06:13:02;;;;;;;;;5.67;5.67;;;;;21.64;43.82;100921.98;111920;1266;19423;-38
2023/04/22 06:15:29;;;;;;;;;7.33;7.00;;;;;21.65;43.88;100915.48;111628;1253;21601;-38
2023/04/22 06:17:56;;;;;;;;;7.00;5.00;;;;;21.65;43.87;100918.10;111889;1266;19568;-37
2023/04/22 06:20:24;;;;;;;;;7.00;5.00;;;;;21.61;43.60;100916.47;111628;1266;21957;-36
2023/04/22 06:22:51;;;;;;;;;5.00;5.00;;;;;21.65;43.40;100916.59;111918;1259;20120;-38
2023/04/22 06:25:19;;;;;;;;;7.00;5.00;;;;;21.69;43.40;100910.22;111635;1266;19610;-37
2023/04/22 06:27:46;;;;;;;;;5.00;5.00;;;;;21.71;43.84;100909.27;111916;1266;19376;-37
2023/04/22 06:30:14;;;;;;;;;5.00;5.00;;;;;21.74;43.88;100911.99;111601;1266;21777;-36
2023/04/22 06:32:41;;;;;;;;;5.00;4.00;;;;;21.76;44.15;100911.98;111773;1266;20698;-38
2023/04/22 06:35:09;;;;;;;;;7.00;7.00;;;;;21.75;43.98;100910.12;111624;1251;20857;-38
2023/04/22 06:37:36;;;;;;;;;5.00;4.50;;;;;21.74;44.20;100910.43;111909;1266;20141;-37
2023/04/22 06:40:04;;;;;;;;;5.67;5.00;;;;;21.73;44.14;100909.84;111639;1251;20854;-37
2023/04/22 06:42:31;;;;;;;;;4.33;4.00;;;;;21.72;44.30;100909.54;111950;1266;19349;-37
2023/04/22 06:44:59;;;;;;;;;7.00;5.00;;;;;21.72;44.30;100904.11;111692;1251;21583;-38
2023/04/22 06:47:26;;;;;;;;;4.00;4.00;;;;;21.71;44.06;100904.34;111960;1260;18688;-38
2023/04/22 06:49:53;;;;;;;;;4.00;4.00;;;;;21.71;44.17;100902.38;111683;1266;20663;-39
2023/04/22 06:52:21;;;;;;;;;4.00;4.00;;;;;21.72;44.08;100907.59;112042;1266;20140;-37
2023/04/22 06:54:49;;;;;;;;;2.00;2.00;;;;;21.72;44.14;100906.29;111636;1266;19547;-38
2023/04/22 06:57:16;;;;;;;;;4.00;4.00;;;;;21.74;43.94;100908.01;111995;1266;19463;-38
2023/04/22 06:59:44;;;;;;;;;4.00;3.00;;;;;21.75;44.05;100907.91;111698;1266;20175;-36
2023/04/22 07:02:11;;;;;;;;;7.00;5.00;;;;;21.78;43.95;100914.51;111972;1251;19652;-38
2023/04/22 07:04:38;;;;;;;;;7.00;7.00;;;;;21.74;43.69;100908.25;111699;1266;19358;-38
2023/04/22 07:07:06;;;;;;;;;90.00;67.00;;;;;21.67;42.89;100907.27;111974;1266;21552;-38
2023/04/22 07:09:34;;;;;;;;;130.00;97.00;;;;;21.68;42.33;100906.58;111688;1266;19597;-38
2023/04/22 07:12:02;;;;;;;;;115.50;89.00;;;;;21.74;42.67;100908.39;111805;1266;19815;-38
2023/04/22 07:14:30;;;;;;;;;93.33;67.00;;;;;21.79;42.78;100908.53;111538;1251;21847;-40
2023/04/22 07:16:57;;;;;;;;;62.00;48.00;;;;;21.79;42.77;100907.64;111722;1266;18903;-39
2023/04/22 07:19:25;;;;;;;;;44.00;36.00;;;;;21.70;41.23;100906.70;111436;1266;19496;-37
2023/04/22 07:21:52;;;;;;;;;49.00;38.00;;;;;21.67;40.59;100911.02;111748;1251;21627;-38
2023/04/22 07:24:20;;;;;;;;;36.00;26.00;;;;;21.66;40.65;100909.73;111496;1251;20002;-39
2023/04/22 07:26:47;;;;;;;;;20.50;20.50;;;;;21.63;40.05;100910.21;111767;1266;20820;-38
2023/04/22 07:29:15;;;;;;;;;19.00;17.00;;;;;21.64;39.79;100911.58;111477;1266;20193;-39
2023/04/22 07:31:42;;;;;;;;;19.00;17.00;;;;;21.69;39.81;100916.85;111734;1259;19928;-39
2023/04/22 07:34:10;;;;;;;;;18.00;16.50;;;;;21.69;39.57;100918.31;111521;1259;21116;-39
2023/04/22 07:36:37;;;;;;;;;14.00;10.00;;;;;21.71;39.48;100912.81;111740;1266;20059;-38
2023/04/22 07:39:05;;;;;;;;;11.00;9.33;;;;;21.73;39.67;100912.48;111477;1266;20223;-37
2023/04/22 07:41:32;;;;;;;;;13.00;11.00;;;;;21.71;39.04;100905.69;111788;1266;20767;-37
2023/04/22 07:44:00;;;;;;;;;14.00;11.00;;;;;21.67;38.26;100909.08;111511;1267;20288;-37
2023/04/22 07:46:27;;;;;;;;;13.00;11.00;;;;;21.65;38.06;100906.05;111803;1253;20041;-37
2023/04/22 07:48:54;;;;;;;;;13.00;11.00;;;;;21.68;37.81;100907.33;111567;1266;20795;-38
2023/04/22 07:51:22;;;;;;;;;10.33;8.00;;;;;21.69;37.52;100910.08;111852;1250;22823;-38
2023/04/22 07:53:50;;;;;;;;;8.00;7.00;;;;;21.71;37.69;100908.17;111581;1266;18706;-37
2023/04/22 07:56:17;;;;;;;;;14.00;11.00;;;;;21.72;37.58;100903.58;111816;1259;20820;-39
2023/04/22 07:58:45;;;;;;;;;7.00;7.00;;;;;21.72;37.81;100904.79;111535;1259;20151;-38
2023/04/22 08:01:12;;;;;;;;;7.00;7.00;;;;;21.77;38.66;100907.32;111806;1266;18658;-39
2023/04/22 08:03:40;;;;;;;;;8.00;8.00;;;;;21.82;38.18;100903.60;111557;1266;20597;-38
2023/04/22 08:06:07;;;;;;;;;7.50;5.00;;;;;21.88;38.67;100901.62;111788;1266;20125;-39
2023/04/22 08:08:35;;;;;;;;;8.00;8.00;;;;;21.92;38.59;100901.70;111574;1251;19660;-38
2023/04/22 08:11:02;;;;;;;;;7.00;7.00;;;;;21.96;38.65;100901.68;111852;1266;19879;-39
2023/04/22 08:13:29;;;;;;;;;7.50;7.50;;;;;21.96;38.20;100899.11;111539;1266;20143;-38
2023/04/22 08:15:57;;;;;;;;;9.33;8.00;;;;;21.94;37.48;100898.98;111830;1266;18805;-37
2023/04/22 08:18:24;;;;;;;;;18.00;14.00;;;;;21.91;36.89;100896.17;111596;1259;19577;-38
2023/04/22 08:20:52;;;;;;;;;15.00;11.00;;;;;21.83;36.13;100896.02;111809;1250;21496;-39
2023/04/22 08:23:20;;;;;;;;;17.00;14.00;;;;;21.76;35.93;100896.20;111573;1260;20022;-39
2023/04/22 08:25:47;;;;;;;;;13.00;11.00;;;;;21.72;35.81;100892.69;111741;1266;22126;-40
2023/04/22 08:28:15;;;;;;;;;11.00;11.00;;;;;21.74;36.08;100891.81;111449;1266;85128;-39
2023/04/22 08:30:42;;;;;;;;;11.00;10.00;;;;;21.81;35.61;100894.88;111892;1266;19955;-39
2023/04/22 08:33:10;;;;;;;;;8.00;7.33;;;;;21.92;35.53;100892.69;111637;1266;20902;-39
2023/04/22 08:35:37;;;;;;;;;8.00;8.00;;;;;21.97;35.74;100892.55;111778;1266;21608;-39
2023/04/22 08:38:05;;;;;;;;;7.00;7.00;;;;;22.08;35.65;100890.95;111537;1251;19712;-40
2023/04/22 08:40:32;;;;;;;;;7.00;7.00;;;;;21.99;35.63;100889.85;111814;1253;20770;-39
2023/04/22 08:42:59;;;;;;;;;7.00;7.00;;;;;22.01;35.54;100890.84;111548;1259;20430;-39
2023/04/22 08:45:27;;;;;;;;;10.00;10.00;;;;;22.13;35.33;100892.84;111835;1266;19553;-42
2023/04/22 08:47:55;;;;;;;;;7.00;7.00;;;;;22.09;35.19;100891.52;111474;1266;19517;-41
2023/04/22 08:50:22;;;;;;;;;8.00;8.00;;;;;21.55;34.14;100893.34;111793;1266;20040;-39
2023/04/22 08:52:50;;;;;;;;;7.67;7.33;;;;;21.19;34.41;100890.89;111503;1251;19627;-39
2023/04/22 08:55:17;;;;;;;;;10.00;7.00;;;;;21.11;34.11;100892.00;111786;1266;19353;-39
2023/04/22 08:57:45;;;;;;;;;10.67;7.67;;;;;21.32;34.21;100888.95;111527;1251;23305;-39
2023/04/22 09:00:12;;;;;;;;;6.00;6.00;;;;;21.52;34.19;100890.75;111848;1266;18728;-39
2023/04/22 09:02:40;;;;;;;;;6.00;5.00;;;;;21.65;33.75;100887.67;111637;1266;20763;-41
2023/04/22 09:05:08;;;;;;;;;7.00;7.00;;;;;21.85;34.01;100885.84;111813;1266;22643;-41
2023/04/22 09:07:35;;;;;;;;;7.00;7.00;;;;;21.93;34.34;100885.05;111647;1266;19606;-39
2023/04/22 09:10:03;;;;;;;;;7.00;5.00;;;;;21.96;34.49;100883.76;111772;1250;19419;-39
2023/04/22 09:12:30;;;;;;;;;7.00;7.00;;;;;21.86;34.30;100880.80;111551;1250;23153;-39
2023/04/22 09:14:58;;;;;;;;;8.00;7.00;;;;;21.65;34.10;100879.88;111828;1266;19019;-38
2023/04/22 09:17:25;;;;;;;;;8.00;8.00;;;;;21.62;34.02;100879.06;111481;1266;21886;-38
2023/04/22 09:19:52;;;;;;;;;9.00;8.00;;;;;21.81;33.75;100874.35;111788;1266;20198;-38
2023/04/22 09:22:20;;;;;;;;;11.00;8.00;;;;;21.85;33.90;100875.61;111476;1250;18963;-38
2023/04/22 09:24:47;;;;;;;;;9.00;8.00;;;;;21.79;33.80;100875.96;111824;1266;19549;-39
2023/04/22 09:27:15;;;;;;;;;10.50;9.50;;;;;21.81;33.89;100870.99;111492;1266;20131;-39
2023/04/22 09:29:42;;;;;;;;;8.00;8.00;;;;;21.93;33.79;100868.20;111803;1266;19041;-40
2023/04/22 09:32:10;;;;;;;;;13.00;10.00;;;;;21.88;34.06;100862.94;111530;1266;19710;-38
2023/04/22 09:34:38;;;;;;;;;10.50;10.50;;;;;21.94;33.48;100856.92;111768;1266;20134;-38
2023/04/22 09:37:05;;;;;;;;;10.00;9.00;;;;;21.94;33.53;100855.66;111633;1266;20339;-38
2023/04/22 09:39:33;;;;;;;;;10.00;10.00;;;;;21.97;33.47;100853.83;111744;1266;19422;-39
2023/04/22 09:42:01;;;;;;;;;10.00;8.00;;;;;22.10;33.67;100854.42;111933;1266;21490;-39
2023/04/22 09:44:28;;;;;;;;;11.00;11.00;;;;;22.06;33.80;100851.62;111752;1266;20221;-39
2023/04/22 09:46:56;;;;;;;;;5.00;5.00;;;;;22.05;33.72;100846.14;111878;1266;20950;-39
2023/04/22 09:49:23;;;;;;;;;8.00;7.00;;;;;22.04;33.54;100841.29;111775;1251;21504;-39
2023/04/22 09:51:50;;;;;;;;;8.00;8.00;;;;;22.00;33.85;100838.59;111666;1266;19660;-39
2023/04/22 09:54:18;;;;;;;;;5.00;5.00;;;;;22.08;33.70;100833.94;111776;1266;20701;-39
2023/04/22 09:56:47;;;;;;;;;8.00;7.00;;;;;22.06;33.89;100830.05;111562;1251;21569;-38
2023/04/22 09:59:14;;;;;;;;;8.00;7.00;;;;;21.99;33.55;100835.15;111633;1250;19537;-39
2023/04/22 10:01:41;;;;;;;;;8.00;8.00;;;;;22.12;33.32;100827.84;111892;1266;20705;-39
2023/04/22 10:04:10;;;;;;;;;10.00;10.00;;;;;22.07;33.53;100826.23;111644;1266;21407;-38
2023/04/22 10:06:37;;;;;;;;;8.00;7.00;;;;;22.12;33.52;100826.58;111796;1266;21049;-39
2023/04/22 10:09:04;;;;;;;;;8.00;7.00;;;;;22.13;33.72;100822.14;111573;1266;21060;-40
2023/04/22 10:11:32;;;;;;;;;7.00;7.00;;;;;22.10;33.65;100822.60;111818;1266;20486;-39
2023/04/22 10:14:00;;;;;;;;;8.00;8.00;;;;;22.07;33.57;100821.90;111568;1250;19741;-38
2023/04/22 10:16:27;;;;;;;;;8.00;8.00;;;;;21.96;33.73;100818.13;111802;1266;20661;-39
2023/04/22 10:18:55;;;;;;;;;10.00;7.00;;;;;22.02;33.29;100813.41;111568;1251;22685;-37
2023/04/22 10:21:22;;;;;;;;;7.00;7.00;;;;;22.02;33.38;100813.55;111849;1266;21034;-36
2023/04/22 10:23:50;;;;;;;;;7.00;7.00;;;;;22.09;33.91;100811.44;111499;1266;19374;-36
2023/04/22 10:26:17;;;;;;;;;7.00;7.00;;;;;22.09;34.25;100810.92;111877;1251;21587;-38
2023/04/22 10:28:45;;;;;;;;;10.00;8.00;;;;;22.12;34.09;100807.80;111553;1266;19543;-39
2023/04/22 10:31:12;;;;;;;;;10.50;10.50;;;;;22.21;33.91;100804.46;111810;1266;20640;-37
2023/04/22 10:33:40;;;;;;;;;8.00;8.00;;;;;22.25;34.12;100809.16;111533;1266;20123;-39
2023/04/22 10:36:08;;;;;;;;;9.00;7.50;;;;;22.16;34.35;100805.40;111869;1259;19917;-38
2023/04/22 10:38:35;;;;;;;;;7.00;7.00;;;;;22.20;34.32;100804.50;111453;1251;20957;-38
2023/04/22 10:41:03;;;;;;;;;10.00;9.00;;;;;22.21;34.57;100800.27;111846;1251;21541;-39
2023/04/22 10:43:30;;;;;;;;;7.50;7.50;;;;;22.14;34.40;100796.68;111596;1251;19676;-38
2023/04/22 10:45:58;;;;;;;;;11.00;11.00;;;;;22.20;34.33;100794.88;111809;1266;19340;-37
2023/04/22 10:48:25;;;;;;;;;8.00;8.00;;;;;22.32;34.07;100795.74;111575;1251;21776;-37
2023/04/22 10:50:53;;;;;;;;;10.00;8.00;;;;;22.16;34.03;100786.66;111794;1266;19969;-37
2023/04/22 10:53:20;;;;;;;;;7.00;7.00;;;;;22.04;33.50;100787.14;111452;1254;20894;-38
2023/04/22 10:55:47;;;;;;;;;8.00;7.00;;;;;21.92;33.43;100782.98;111778;1251;21593;-39
2023/04/22 10:58:15;;;;;;;;;8.00;8.00;;;;;22.06;33.06;100779.98;111477;1266;19478;-39
2023/04/22 11:00:43;;;;;;;;;11.00;10.00;;;;;22.13;32.91;100782.20;111757;1266;20686;-39
2023/04/22 11:03:10;;;;;;;;;10.67;10.00;;;;;22.02;33.27;100777.50;111749;1252;21557;-38
2023/04/22 11:05:38;;;;;;;;;11.00;11.00;;;;;22.06;33.03;100773.36;111762;1251;20423;-37
2023/04/22 11:08:06;;;;;;;;;13.00;13.00;;;;;22.12;33.18;100775.23;111927;1252;20895;-38
2023/04/22 11:10:33;;;;;;;;;10.00;10.00;;;;;22.17;32.81;100775.25;111722;1250;21708;-38
2023/04/22 11:13:00;;;;;;;;;10.00;10.00;;;;;22.20;33.39;100772.16;111829;1266;18755;-38
2023/04/22 11:15:28;;;;;;;;;9.00;8.00;;;;;22.22;33.33;100771.64;111730;1266;19453;-38